Hastings On Hudson, NY (10706)

10:56 AM EDT on October 30, 2014 (GMT -0400)
Lamont-Doherty Earth Observatory | Change Station
CLOSE
Current Station
Personal Weather Station
Location: Palisades, NY
Elevation: 380 ft
Nearby Weather Stations

Elev 380 ft 41.00 °N, 73.91 °W | Updated 9 minutes ago

Partly Cloudy
Partly Cloudy
51.1 °F
Feels Like 51.1 °F
N
3.0
Wind Variable Wind from WNW
Gusts 9.0 mph

Today
High -- | Low -- °F
--% Chance of Precip.
Yesterday
High -- | Low -- °F
Precip. -- in
7:23 AM 5:53 PM
Waxing Crescent, 44% visible
Pressure 29.99 in
Visibility 10.0 miles
Clouds Mostly Cloudy 7000 ft
Dew Point 44 °F
Humidity 78%
Rainfall 0.00 in
Snow Depth Not available.
UV 2.3 out of 12
Pollen .90 out of 12
Air Quality Not available.
Flu Activity Not available.
METAR KHPN 301356Z COR 32007KT 10SM BKN070 10/06 A2998 RMK AO2 SLP155 T01000056

More Conditions Fewer Conditions

Pressure 29.99 in
Visibility 10.0 miles
Clouds Mostly Cloudy 7000 ft
Dew Point 44 °F
Humidity 78%
Rainfall 0.00 in
Snow Depth Not available.
UV 2.3 out of 12
Pollen .90 out of 12
Air Quality Not available.
Flu Activity Not available.
METAR KHPN 301356Z COR 32007KT 10SM BKN070 10/06 A2998 RMK AO2 SLP155 T01000056

More Conditions Fewer Conditions

10-Day Weather Forecast

Almanac

Astronomy

Oct. 30, 2014 Rise Set
Actual Time
Civil Twilight
Nautical Twilight
Astronomical Twilight
Moon
Length of Visible Light
Length of Day
Tomorrow will be .
, % of the Moon is Illuminated

Today's Extremes

State Highs State Lows

Community

WunderPhotos

Upload Photos

1,766,379 photos uploaded!

WunderBlogs® & News

Nearby

Air Quality

  Air Quality AQ Index Pollutant
Not available.

Snow Depth

Station Depth Elevation

Earthquake Activity

City Distance Mag. Time & Date
Minimum magnitude displayed is 2.5.

Coastal Water Temperatures

Place Temperature

Nearby Weather Stations